createdAt,value
2019-06-20T00:02:24.090Z,100.00
2019-06-20T00:04:52.679Z,100.00
2019-06-20T00:07:21.141Z,100.00
2019-06-20T00:09:52.403Z,100.00
2019-06-20T00:12:20.381Z,100.00
2019-06-20T00:14:48.848Z,100.00
2019-06-20T00:17:17.447Z,100.00
2019-06-20T00:19:45.899Z,100.00
2019-06-20T00:22:14.516Z,100.00
2019-06-20T00:24:43.040Z,100.00
2019-06-20T00:27:11.607Z,100.00
2019-06-20T00:29:40.192Z,100.00
2019-06-20T00:32:08.825Z,100.00
2019-06-20T00:34:37.470Z,100.00
2019-06-20T00:37:06.081Z,100.00
2019-06-20T00:39:34.623Z,100.00
2019-06-20T00:42:03.260Z,100.00
2019-06-20T00:44:31.842Z,100.00
2019-06-20T00:47:00.436Z,100.00
2019-06-20T00:49:28.971Z,100.00
2019-06-20T00:51:57.496Z,100.00
2019-06-20T00:54:26.039Z,100.00
2019-06-20T00:56:54.615Z,100.00
2019-06-20T00:59:23.212Z,100.00
2019-06-20T01:01:51.752Z,100.00
2019-06-20T01:04:20.363Z,100.00
2019-06-20T01:06:48.935Z,100.00
2019-06-20T01:09:17.534Z,100.00
2019-06-20T01:11:46.233Z,100.00
2019-06-20T01:14:14.834Z,100.00
2019-06-20T01:16:43.601Z,100.00
2019-06-20T01:19:12.127Z,100.00
2019-06-20T01:21:40.721Z,100.00
2019-06-20T01:24:09.313Z,100.00
2019-06-20T01:26:37.870Z,100.00
2019-06-20T01:29:06.467Z,100.00
2019-06-20T01:31:35.060Z,100.00
2019-06-20T01:34:03.695Z,100.00
2019-06-20T01:36:32.219Z,100.00
2019-06-20T01:39:00.810Z,100.00
2019-06-20T01:41:29.396Z,100.00
2019-06-20T01:43:57.937Z,100.00
2019-06-20T01:46:26.404Z,100.00
2019-06-20T01:48:54.998Z,100.00
2019-06-20T01:51:23.689Z,100.00
2019-06-20T01:53:52.171Z,100.00
2019-06-20T01:56:20.706Z,100.00
2019-06-20T01:58:49.344Z,100.00
2019-06-20T02:01:18.243Z,100.00
2019-06-20T02:03:46.868Z,100.00
2019-06-20T02:06:15.465Z,100.00
2019-06-20T02:08:44.023Z,100.00
2019-06-20T02:11:12.675Z,100.00
2019-06-20T02:13:41.385Z,100.00
2019-06-20T02:16:09.987Z,100.00
2019-06-20T02:18:38.509Z,100.00
2019-06-20T02:21:07.427Z,100.00
2019-06-20T02:23:35.984Z,100.00
2019-06-20T02:26:04.777Z,100.00
2019-06-20T02:28:33.401Z,100.00
2019-06-20T02:31:01.929Z,100.00
2019-06-20T02:33:30.542Z,100.00
2019-06-20T02:35:59.080Z,100.00
2019-06-20T02:38:27.789Z,100.00
2019-06-20T02:40:56.332Z,100.00
2019-06-20T02:43:24.913Z,100.00
2019-06-20T02:45:53.593Z,100.00
2019-06-20T02:48:22.188Z,100.00
2019-06-20T02:50:50.810Z,100.00
2019-06-20T02:53:19.444Z,100.00
2019-06-20T02:55:47.962Z,100.00
2019-06-20T02:58:16.588Z,100.00
2019-06-20T03:00:56.976Z,100.00
2019-06-20T03:03:26.492Z,100.00
2019-06-20T03:05:55.467Z,100.00
2019-06-20T03:08:24.402Z,100.00
2019-06-20T03:10:53.004Z,100.00
2019-06-20T03:13:21.597Z,100.00
2019-06-20T03:15:50.253Z,100.00
2019-06-20T03:18:18.949Z,100.00
2019-06-20T03:20:47.402Z,100.00
2019-06-20T03:23:16.017Z,100.00
2019-06-20T03:25:44.634Z,100.00
2019-06-20T03:28:13.160Z,100.00
2019-06-20T03:30:41.718Z,100.00
2019-06-20T03:33:10.245Z,100.00
2019-06-20T03:35:38.731Z,100.00
2019-06-20T03:38:07.306Z,100.00
2019-06-20T03:40:35.853Z,100.00
2019-06-20T03:43:04.436Z,100.00
2019-06-20T03:45:33.381Z,100.00
2019-06-20T03:48:01.915Z,100.00
2019-06-20T03:50:30.427Z,100.00
2019-06-20T03:53:02.018Z,100.00
2019-06-20T03:55:32.488Z,100.00
2019-06-20T03:58:01.672Z,100.00
2019-06-20T04:00:33.275Z,100.00
2019-06-20T04:03:02.063Z,100.00
2019-06-20T04:05:30.608Z,100.00
2019-06-20T04:07:59.223Z,100.00
2019-06-20T04:10:27.852Z,100.00
2019-06-20T04:12:56.478Z,100.00
2019-06-20T04:15:25.032Z,100.00
2019-06-20T04:17:53.621Z,100.00
2019-06-20T04:20:22.336Z,100.00
2019-06-20T04:22:50.784Z,100.00
2019-06-20T04:25:19.361Z,100.00
2019-06-20T04:27:47.816Z,100.00
2019-06-20T04:30:16.732Z,100.00
2019-06-20T04:32:45.326Z,100.00
2019-06-20T04:35:14.058Z,100.00
2019-06-20T04:37:42.714Z,100.00
2019-06-20T04:40:11.730Z,100.00
2019-06-20T04:42:40.268Z,100.00
2019-06-20T04:45:16.657Z,100.00
2019-06-20T04:47:45.179Z,100.00
2019-06-20T04:50:13.897Z,100.00
2019-06-20T04:52:42.505Z,100.00
2019-06-20T04:55:11.222Z,100.00
2019-06-20T04:57:39.846Z,100.00
2019-06-20T05:00:09.214Z,100.00
2019-06-20T05:02:37.776Z,100.00
2019-06-20T05:05:07.411Z,100.00
2019-06-20T05:07:36.008Z,100.00
2019-06-20T05:10:07.239Z,100.00
2019-06-20T05:12:35.834Z,100.00
2019-06-20T05:15:05.955Z,100.00
2019-06-20T05:17:34.497Z,100.00
2019-06-20T05:20:03.555Z,100.00
2019-06-20T05:22:32.043Z,100.00
2019-06-20T05:25:00.614Z,100.00
2019-06-20T05:27:29.137Z,100.00
2019-06-20T05:29:57.633Z,100.00
2019-06-20T05:32:26.256Z,100.00
2019-06-20T05:34:54.806Z,100.00
2019-06-20T05:37:23.253Z,100.00
2019-06-20T05:39:51.800Z,100.00
2019-06-20T05:42:20.337Z,100.00
2019-06-20T05:44:48.879Z,100.00
2019-06-20T05:47:17.416Z,100.00
2019-06-20T05:49:45.961Z,100.00
2019-06-20T05:52:14.533Z,100.00
2019-06-20T05:54:43.333Z,100.00
2019-06-20T05:57:11.925Z,100.00
2019-06-20T05:59:40.381Z,100.00
2019-06-20T06:02:08.945Z,100.00
2019-06-20T06:04:37.537Z,100.00
2019-06-20T06:07:06.134Z,100.00
2019-06-20T06:09:34.734Z,100.00
2019-06-20T06:12:03.163Z,100.00
2019-06-20T06:14:31.758Z,100.00
2019-06-20T06:17:00.435Z,100.00
2019-06-20T06:19:28.923Z,100.00
2019-06-20T06:21:57.480Z,99.96
2019-06-20T06:24:26.074Z,100.00
2019-06-20T06:26:59.589Z,99.97
2019-06-20T06:29:24.810Z,100.00
2019-06-20T06:31:53.401Z,100.00
2019-06-20T06:34:22.218Z,99.55
2019-06-20T06:36:50.847Z,100.00
2019-06-20T06:39:19.432Z,100.00
2019-06-20T06:41:48.069Z,99.86
2019-06-20T06:44:16.668Z,100.00
2019-06-20T06:46:53.162Z,98.32
2019-06-20T06:49:15.619Z,99.06
2019-06-20T06:51:44.235Z,99.43
2019-06-20T06:54:12.846Z,99.46
2019-06-20T06:56:41.448Z,99.97
2019-06-20T06:59:10.045Z,100.00
2019-06-20T07:01:38.665Z,100.00
2019-06-20T07:04:07.278Z,100.00
2019-06-20T07:06:35.901Z,99.41
2019-06-20T07:09:08.162Z,97.80
2019-06-20T07:11:37.084Z,96.52
2019-06-20T07:14:06.081Z,95.56
2019-06-20T07:16:35.302Z,94.80
2019-06-20T07:19:03.920Z,93.55
2019-06-20T07:21:32.654Z,93.72
2019-06-20T07:24:01.172Z,93.53
2019-06-20T07:26:29.772Z,93.47
2019-06-20T07:28:58.309Z,93.43
2019-06-20T07:31:26.783Z,93.57
2019-06-20T07:33:55.308Z,93.91
2019-06-20T07:36:23.873Z,93.84
2019-06-20T07:38:52.563Z,94.20
2019-06-20T07:41:21.402Z,94.52
2019-06-20T07:43:50.034Z,93.48
2019-06-20T07:46:18.576Z,93.19
2019-06-20T07:48:47.051Z,93.41
2019-06-20T07:51:15.593Z,93.55
2019-06-20T07:53:44.184Z,93.52
2019-06-20T07:56:12.897Z,93.78
2019-06-20T07:58:41.432Z,93.52
2019-06-20T08:01:10.063Z,93.27
2019-06-20T08:03:38.728Z,92.92
2019-06-20T08:06:07.345Z,92.09
2019-06-20T08:08:36.003Z,91.98
2019-06-20T08:11:04.720Z,92.20
2019-06-20T08:13:33.246Z,91.96
2019-06-20T08:16:03.838Z,91.70
2019-06-20T08:18:32.119Z,88.72
2019-06-20T08:21:00.709Z,86.26
2019-06-20T08:23:29.274Z,82.51
2019-06-20T08:25:59.194Z,79.62
2019-06-20T08:28:28.197Z,77.74
2019-06-20T08:30:57.832Z,77.22
2019-06-20T08:33:27.113Z,74.70
2019-06-20T08:35:56.910Z,72.59
2019-06-20T08:38:26.040Z,70.53
2019-06-20T08:40:56.553Z,70.35
2019-06-20T08:43:24.880Z,70.83
2019-06-20T08:45:53.471Z,70.17
2019-06-20T08:48:22.063Z,69.09
2019-06-20T08:50:50.678Z,68.71
2019-06-20T08:53:19.426Z,69.49
2019-06-20T08:55:48.077Z,70.25
2019-06-20T08:58:16.820Z,70.43
2019-06-20T09:00:45.614Z,70.14
2019-06-20T09:03:14.170Z,70.54
2019-06-20T09:05:42.765Z,69.82
2019-06-20T09:08:12.034Z,70.52
2019-06-20T09:10:41.826Z,69.29
2019-06-20T09:13:12.747Z,68.90
2019-06-20T09:15:42.744Z,69.36
2019-06-20T09:18:11.634Z,70.67
2019-06-20T09:20:40.433Z,71.51
2019-06-20T09:23:09.027Z,72.17
2019-06-20T09:25:37.756Z,71.16
2019-06-20T09:28:06.849Z,66.36
2019-06-20T09:30:36.602Z,66.07
2019-06-20T09:33:05.516Z,67.20
2019-06-20T09:35:34.213Z,67.42
2019-06-20T09:38:03.452Z,68.18
2019-06-20T09:40:32.287Z,69.06
2019-06-20T09:43:00.999Z,69.43
2019-06-20T09:45:29.671Z,68.41
2019-06-20T09:47:58.381Z,66.26
2019-06-20T09:50:27.128Z,65.66
2019-06-20T09:52:56.593Z,67.00
2019-06-20T09:55:25.391Z,66.88
2019-06-20T09:57:53.984Z,67.48
2019-06-20T10:00:25.483Z,68.91
2019-06-20T10:02:55.910Z,70.19
2019-06-20T10:05:24.454Z,68.18
2019-06-20T10:07:54.370Z,67.96
2019-06-20T10:10:26.051Z,67.07
2019-06-20T10:12:55.771Z,67.62
2019-06-20T10:15:32.982Z,67.92
2019-06-20T10:18:01.581Z,66.86
2019-06-20T10:22:50.958Z,67.54
2019-06-20T10:25:19.732Z,67.06
2019-06-20T10:27:49.711Z,66.90
2019-06-20T10:30:21.679Z,66.37
2019-06-20T10:32:50.977Z,64.40
2019-06-20T10:35:20.176Z,64.30
2019-06-20T10:37:49.059Z,63.17
2019-06-20T10:40:20.526Z,61.58
2019-06-20T10:42:50.232Z,61.40
2019-06-20T10:45:21.327Z,59.67
2019-06-20T10:47:50.920Z,60.11
2019-06-20T10:50:20.134Z,58.52
2019-06-20T10:52:50.025Z,58.25
2019-06-20T10:55:19.265Z,57.71
2019-06-20T10:57:49.643Z,56.00
2019-06-20T11:00:30.330Z,55.74
2019-06-20T11:02:49.357Z,56.03
2019-06-20T11:05:19.459Z,54.75
2019-06-20T11:07:48.124Z,54.64
2019-06-20T11:10:18.834Z,53.82
2019-06-20T11:12:53.784Z,53.43
2019-06-20T11:15:18.478Z,56.02
2019-06-20T11:17:48.332Z,56.39
2019-06-20T11:20:17.384Z,58.44
2019-06-20T11:22:45.934Z,57.44
2019-06-20T11:25:14.936Z,57.94
2019-06-20T11:27:44.722Z,58.63
2019-06-20T11:30:18.613Z,58.38
2019-06-20T11:32:48.757Z,59.19
2019-06-20T11:35:17.606Z,58.58
2019-06-20T11:37:47.201Z,58.16
2019-06-20T11:40:16.975Z,57.40
2019-06-20T11:42:46.900Z,58.36
2019-06-20T11:45:16.367Z,57.53
2019-06-20T11:47:44.883Z,57.05
2019-06-20T11:50:15.168Z,57.35
2019-06-20T11:52:45.704Z,56.35
2019-06-20T11:55:14.516Z,56.00
2019-06-20T11:57:43.161Z,58.09
2019-06-20T12:00:12.673Z,58.89
2019-06-20T12:02:43.652Z,59.38
2019-06-20T12:05:11.748Z,59.12
2019-06-20T12:07:41.631Z,59.92
2019-06-20T12:10:11.339Z,60.13
2019-06-20T12:12:41.027Z,60.95
2019-06-20T12:15:10.710Z,60.59
2019-06-20T12:17:41.265Z,59.67
2019-06-20T12:20:10.565Z,59.52
2019-06-20T12:22:41.713Z,61.09
2019-06-20T12:25:10.345Z,59.86
2019-06-20T12:27:40.803Z,59.65
2019-06-20T12:30:11.185Z,60.92
2019-06-20T12:32:40.668Z,60.88
2019-06-20T12:35:10.012Z,62.23
2019-06-20T12:37:40.364Z,62.50
2019-06-20T12:40:09.420Z,62.21
2019-06-20T12:42:39.318Z,62.66
2019-06-20T12:45:09.647Z,63.12
2019-06-20T12:47:38.830Z,63.07
2019-06-20T12:50:08.961Z,63.11
2019-06-20T12:52:38.908Z,63.50
2019-06-20T12:55:08.067Z,64.07
2019-06-20T12:57:38.503Z,64.82
2019-06-20T13:00:12.364Z,65.18
2019-06-20T13:02:41.999Z,64.91
2019-06-20T13:05:11.687Z,65.78
2019-06-20T13:07:41.982Z,66.99
2019-06-20T13:10:11.139Z,67.63
2019-06-20T13:12:42.314Z,67.88
2019-06-20T13:16:59.692Z,68.16
2019-06-20T13:19:28.432Z,69.60
2019-06-20T13:21:57.091Z,69.83
2019-06-20T13:24:25.579Z,69.51
2019-06-20T13:26:54.189Z,70.68
2019-06-20T13:29:22.844Z,71.37
2019-06-20T13:32:01.840Z,71.00
2019-06-20T13:34:21.766Z,70.74
2019-06-20T13:36:50.399Z,70.81
2019-06-20T13:39:19.053Z,71.33
2019-06-20T13:41:48.065Z,72.45
2019-06-20T13:44:17.634Z,72.34
2019-06-20T13:46:46.608Z,72.57
2019-06-20T13:49:15.223Z,72.74
2019-06-20T13:51:43.724Z,73.02
2019-06-20T13:54:12.265Z,73.08
2019-06-20T13:56:42.481Z,73.52
2019-06-20T13:59:11.265Z,73.25
2019-06-20T14:01:41.448Z,74.80
2019-06-20T14:04:10.331Z,75.92
2019-06-20T14:06:39.075Z,76.13
2019-06-20T14:09:08.035Z,74.63
2019-06-20T14:11:36.667Z,73.90
2019-06-20T14:14:05.572Z,73.04
2019-06-20T14:16:34.186Z,72.07
2019-06-20T14:19:02.751Z,72.46
2019-06-20T14:21:31.398Z,71.45
2019-06-20T14:24:00.024Z,71.35
2019-06-20T14:26:28.579Z,72.15
2019-06-20T14:28:57.232Z,70.91
2019-06-20T14:31:25.843Z,71.46
2019-06-20T14:33:55.575Z,70.75
2019-06-20T14:36:24.269Z,69.93
2019-06-20T14:38:53.806Z,69.38
2019-06-20T14:41:22.599Z,68.54
2019-06-20T14:43:51.828Z,68.90
2019-06-20T14:46:20.591Z,68.71
2019-06-20T14:48:50.192Z,69.09
2019-06-20T14:51:18.974Z,68.41
2019-06-20T14:53:47.562Z,69.51
2019-06-20T14:56:16.193Z,69.47
2019-06-20T14:58:45.498Z,69.35
2019-06-20T15:01:15.160Z,69.42
2019-06-20T15:03:45.615Z,69.63
2019-06-20T15:06:14.066Z,69.90
2019-06-20T15:08:43.952Z,70.49
2019-06-20T15:11:12.867Z,70.58
2019-06-20T15:13:41.369Z,71.20
2019-06-20T15:16:10.053Z,71.46
2019-06-20T15:18:38.608Z,72.18
2019-06-20T15:21:07.242Z,72.46
2019-06-20T15:23:35.856Z,72.89
2019-06-20T15:26:04.431Z,73.35
2019-06-20T15:28:33.104Z,73.49
2019-06-20T15:31:01.636Z,73.22
2019-06-20T15:33:30.247Z,74.34
2019-06-20T15:35:58.863Z,73.22
2019-06-20T15:38:27.489Z,73.22
2019-06-20T15:40:56.055Z,73.61
2019-06-20T15:43:24.689Z,74.24
2019-06-20T15:45:53.871Z,73.89
2019-06-20T15:48:22.643Z,73.89
2019-06-20T15:50:51.194Z,74.39
2019-06-20T15:53:19.713Z,74.10
2019-06-20T15:55:48.256Z,74.70
2019-06-20T15:58:16.718Z,74.26
2019-06-20T16:00:45.523Z,74.90
2019-06-20T16:03:14.784Z,74.03
2019-06-20T16:05:43.512Z,74.22
2019-06-20T16:08:12.123Z,75.15
2019-06-20T16:10:40.759Z,75.05
2019-06-20T16:13:09.385Z,74.45
2019-06-20T16:15:37.998Z,73.77
2019-06-20T16:18:06.549Z,73.99
2019-06-20T16:20:35.248Z,73.45
2019-06-20T16:23:03.842Z,74.80
2019-06-20T16:25:32.373Z,73.11
2019-06-20T16:28:00.981Z,73.79
2019-06-20T16:30:33.604Z,74.00
2019-06-20T16:33:00.770Z,74.34
2019-06-20T16:35:29.238Z,73.72
2019-06-20T16:37:57.871Z,75.92
2019-06-20T16:40:44.709Z,76.06
2019-06-20T16:43:13.321Z,76.50
2019-06-20T16:45:42.134Z,75.49
2019-06-20T16:48:10.951Z,75.23
2019-06-20T16:50:39.717Z,74.20
2019-06-20T16:53:08.516Z,74.33
2019-06-20T16:55:37.237Z,74.21
2019-06-20T16:58:07.450Z,74.08
2019-06-20T17:00:36.214Z,74.16
2019-06-20T17:03:05.701Z,71.79
2019-06-20T17:05:34.308Z,72.44
2019-06-20T17:08:02.846Z,72.73
2019-06-20T17:10:31.507Z,71.62
2019-06-20T17:13:00.272Z,71.71
2019-06-20T17:15:28.890Z,72.23
2019-06-20T17:17:57.715Z,71.89
2019-06-20T17:20:26.404Z,72.62
2019-06-20T17:22:55.057Z,72.55
2019-06-20T17:25:23.936Z,73.81
2019-06-20T17:27:52.643Z,74.08
2019-06-20T17:30:23.022Z,76.00
2019-06-20T17:32:51.641Z,76.81
2019-06-20T17:35:20.369Z,76.23
2019-06-20T17:37:48.955Z,76.81
2019-06-20T17:40:18.481Z,76.95
2019-06-20T17:42:47.089Z,77.60
2019-06-20T17:45:16.383Z,77.52
2019-06-20T17:47:44.986Z,78.90
2019-06-20T17:50:14.489Z,79.11
2019-06-20T17:52:43.202Z,80.02
2019-06-20T17:55:12.605Z,80.12
2019-06-20T17:57:41.464Z,80.85
2019-06-20T18:00:12.672Z,80.84
2019-06-20T18:02:41.491Z,81.34
2019-06-20T18:05:10.327Z,81.45
2019-06-20T18:07:38.865Z,81.91
2019-06-20T18:10:07.922Z,83.06
2019-06-20T18:12:36.551Z,83.98
2019-06-20T18:15:08.843Z,84.92
2019-06-20T18:17:37.323Z,85.55
2019-06-20T18:20:07.252Z,85.66
2019-06-20T18:22:35.862Z,87.60
2019-06-20T18:25:06.881Z,87.33
2019-06-20T18:27:35.517Z,88.01
2019-06-20T18:30:06.200Z,88.10
2019-06-20T18:32:34.761Z,88.86
2019-06-20T18:35:04.390Z,89.28
2019-06-20T18:37:32.893Z,89.80
2019-06-20T18:40:01.373Z,90.34
2019-06-20T18:42:30.105Z,89.73
2019-06-20T18:44:58.646Z,90.45
2019-06-20T18:47:27.443Z,90.69
2019-06-20T18:49:56.051Z,91.06
2019-06-20T18:52:24.662Z,91.58
2019-06-20T18:54:53.314Z,92.02
2019-06-20T18:57:21.930Z,93.06
2019-06-20T18:59:50.565Z,93.04
2019-06-20T19:02:19.091Z,93.60
2019-06-20T19:04:50.723Z,93.69
2019-06-20T19:07:17.940Z,94.41
2019-06-20T19:09:46.575Z,94.36
2019-06-20T19:12:15.156Z,94.66
2019-06-20T19:14:43.676Z,94.62
2019-06-20T19:17:14.747Z,94.82
2019-06-20T19:19:42.551Z,95.04
2019-06-20T19:22:11.101Z,95.12
2019-06-20T19:24:39.672Z,95.36
2019-06-20T19:27:08.302Z,95.58
2019-06-20T19:29:36.912Z,95.69
2019-06-20T19:32:05.535Z,96.09
2019-06-20T19:34:34.112Z,96.34
2019-06-20T19:37:02.737Z,96.58
2019-06-20T19:39:31.290Z,96.87
2019-06-20T19:41:59.881Z,97.38
2019-06-20T19:44:28.355Z,97.51
2019-06-20T19:46:56.989Z,97.41
2019-06-20T19:49:25.585Z,97.19
2019-06-20T19:51:54.236Z,97.45
2019-06-20T19:54:23.098Z,97.90
2019-06-20T19:56:51.708Z,98.04
2019-06-20T19:59:20.321Z,97.97
2019-06-20T20:01:48.952Z,98.54
2019-06-20T20:04:17.563Z,98.28
2019-06-20T20:06:46.213Z,98.24
2019-06-20T20:09:14.925Z,98.23
2019-06-20T20:11:43.603Z,98.20
2019-06-20T20:14:12.228Z,98.07
2019-06-20T20:16:40.838Z,97.98
2019-06-20T20:19:09.454Z,98.16
2019-06-20T20:21:37.998Z,98.02
2019-06-20T20:24:07.054Z,98.02
2019-06-20T20:26:35.725Z,98.06
2019-06-20T20:29:04.360Z,98.27
2019-06-20T20:31:33.024Z,99.20
2019-06-20T20:34:01.743Z,99.22
2019-06-20T20:36:30.319Z,100.00
2019-06-20T20:38:58.961Z,100.00
2019-06-20T20:41:27.659Z,100.00
2019-06-20T20:43:56.181Z,100.00
2019-06-20T20:46:24.753Z,100.00
2019-06-20T20:48:53.377Z,100.00
2019-06-20T20:51:22.173Z,100.00
2019-06-20T20:53:50.746Z,100.00
2019-06-20T20:56:19.360Z,100.00
2019-06-20T20:58:48.171Z,100.00
2019-06-20T21:01:22.375Z,100.00
2019-06-20T21:03:50.998Z,100.00
2019-06-20T21:06:19.614Z,100.00
2019-06-20T21:08:48.370Z,100.00
2019-06-20T21:11:16.995Z,100.00
2019-06-20T21:13:45.628Z,100.00
2019-06-20T21:16:14.172Z,100.00
2019-06-20T21:18:42.726Z,100.00
2019-06-20T21:21:11.309Z,100.00
2019-06-20T21:23:39.907Z,100.00
2019-06-20T21:26:08.465Z,100.00
2019-06-20T21:28:37.065Z,100.00
2019-06-20T21:31:05.690Z,100.00
2019-06-20T21:33:34.260Z,100.00
2019-06-20T21:36:08.316Z,100.00
2019-06-20T21:38:33.232Z,100.00
2019-06-20T21:41:01.914Z,100.00
2019-06-20T21:43:30.458Z,100.00
2019-06-20T21:45:59.022Z,100.00
2019-06-20T21:48:27.495Z,100.00
2019-06-20T21:50:56.252Z,100.00
2019-06-20T21:53:24.797Z,100.00
2019-06-20T21:55:53.420Z,100.00
2019-06-20T21:58:22.071Z,100.00
2019-06-20T22:00:54.249Z,100.00
2019-06-20T22:03:22.886Z,100.00
2019-06-20T22:05:51.368Z,100.00
2019-06-20T22:08:19.980Z,100.00
2019-06-20T22:10:48.778Z,100.00
2019-06-20T22:13:17.373Z,100.00
2019-06-20T22:15:46.195Z,100.00
2019-06-20T22:18:14.896Z,100.00
2019-06-20T22:20:43.535Z,100.00
2019-06-20T22:23:12.089Z,100.00
2019-06-20T22:25:40.707Z,100.00
2019-06-20T22:28:09.358Z,100.00
2019-06-20T22:30:52.992Z,100.00
2019-06-20T22:33:21.612Z,100.00
2019-06-20T22:35:50.255Z,100.00
2019-06-20T22:38:18.826Z,100.00
2019-06-20T22:40:47.655Z,100.00
2019-06-20T22:43:16.306Z,100.00
2019-06-20T22:45:45.242Z,100.00
2019-06-20T22:48:13.860Z,100.00
2019-06-20T22:50:42.489Z,100.00
2019-06-20T22:53:11.092Z,100.00
2019-06-20T22:55:39.681Z,100.00
2019-06-20T22:58:08.291Z,100.00
2019-06-20T23:00:36.965Z,100.00
2019-06-20T23:03:06.222Z,100.00
2019-06-20T23:05:35.440Z,100.00
2019-06-20T23:08:04.278Z,100.00
2019-06-20T23:10:32.898Z,100.00
2019-06-20T23:13:01.519Z,100.00
2019-06-20T23:15:30.096Z,100.00
2019-06-20T23:17:58.643Z,100.00
2019-06-20T23:20:27.292Z,100.00
2019-06-20T23:22:55.988Z,100.00
2019-06-20T23:25:24.723Z,100.00
2019-06-20T23:27:53.325Z,100.00
2019-06-20T23:30:22.670Z,100.00
2019-06-20T23:32:51.220Z,100.00
2019-06-20T23:35:19.847Z,100.00
2019-06-20T23:37:48.396Z,100.00
2019-06-20T23:40:17.533Z,100.00
2019-06-20T23:42:46.248Z,100.00
2019-06-20T23:45:15.191Z,100.00
2019-06-20T23:47:43.903Z,100.00
2019-06-20T23:50:18.889Z,100.00
2019-06-20T23:52:50.452Z,100.00
2019-06-20T23:55:19.062Z,100.00
2019-06-20T23:57:47.636Z,100.00
